createdAt,value
2023-02-19T00:25:13.425Z,64.77
2023-02-19T00:28:45.576Z,64.83
2023-02-19T00:32:17.385Z,64.80
2023-02-19T00:35:48.799Z,64.42
2023-02-19T00:43:16.844Z,64.43
2023-02-19T00:50:21.450Z,64.43
2023-02-19T00:53:52.288Z,64.23
2023-02-19T00:57:10.586Z,63.97
2023-02-19T01:00:10.881Z,63.86
2023-02-19T01:03:31.977Z,63.77
2023-02-19T01:06:36.184Z,63.72
2023-02-19T01:09:32.004Z,63.66
2023-02-19T01:12:44.489Z,63.61
2023-02-19T01:16:05.799Z,63.78
2023-02-19T01:19:10.135Z,63.82
2023-02-19T01:22:28.484Z,63.58
2023-02-19T01:25:29.960Z,63.29
2023-02-19T01:29:00.414Z,63.52
2023-02-19T01:32:20.827Z,63.47
2023-02-19T01:35:40.680Z,63.25
2023-02-19T01:39:00.624Z,63.10
2023-02-19T01:42:33.639Z,62.80
2023-02-19T01:46:16.254Z,62.50
2023-02-19T01:49:14.357Z,62.83
2023-02-19T01:52:35.500Z,62.44
2023-02-19T01:55:56.857Z,62.34
2023-02-19T01:58:59.200Z,62.63
2023-02-19T02:02:11.000Z,62.12
2023-02-19T02:05:32.001Z,61.96
2023-02-19T02:08:43.084Z,62.24
2023-02-19T02:11:57.213Z,62.16
2023-02-19T02:14:59.345Z,62.18
2023-02-19T02:18:23.262Z,62.39
2023-02-19T02:21:54.010Z,62.24
2023-02-19T02:25:07.374Z,61.91
2023-02-19T02:28:44.648Z,62.12
2023-02-19T02:32:14.424Z,62.00
2023-02-19T02:35:30.464Z,61.95
2023-02-19T02:38:21.433Z,62.05
2023-02-19T02:41:37.184Z,62.25
2023-02-19T02:44:55.386Z,62.76
2023-02-19T02:48:04.914Z,62.97
2023-02-19T02:51:01.887Z,62.61
2023-02-19T02:54:19.956Z,62.62
2023-02-19T02:57:40.796Z,62.90
2023-02-19T03:00:52.987Z,62.70
2023-02-19T03:04:23.631Z,62.99
2023-02-19T03:07:48.640Z,62.93
2023-02-19T03:11:08.304Z,62.80
2023-02-19T03:14:28.042Z,62.81
2023-02-19T03:17:51.460Z,62.43
2023-02-19T03:21:23.099Z,62.61
2023-02-19T03:24:42.500Z,62.81
2023-02-19T03:27:57.298Z,63.04
2023-02-19T03:31:09.801Z,62.93
2023-02-19T03:34:22.288Z,63.12
2023-02-19T03:37:41.318Z,63.24
2023-02-19T03:41:13.900Z,63.39
2023-02-19T03:44:43.363Z,63.59
2023-02-19T03:48:14.989Z,63.46
2023-02-19T03:51:45.098Z,63.99
2023-02-19T03:54:53.956Z,64.07
2023-02-19T03:58:20.507Z,63.97
2023-02-19T04:01:36.139Z,64.10
2023-02-19T04:05:04.487Z,64.00
2023-02-19T04:08:11.153Z,64.25
2023-02-19T04:11:23.565Z,64.54
2023-02-19T04:14:41.473Z,64.50
2023-02-19T04:17:44.706Z,64.59
2023-02-19T04:20:59.617Z,64.67
2023-02-19T04:24:16.128Z,64.70
2023-02-19T04:27:29.754Z,64.90
2023-02-19T04:30:51.942Z,65.14
2023-02-19T04:34:04.829Z,65.28
2023-02-19T04:37:08.206Z,65.27
2023-02-19T04:40:12.022Z,65.32
2023-02-19T04:43:32.284Z,65.15
2023-02-19T04:46:37.517Z,65.20
2023-02-19T04:49:37.543Z,65.12
2023-02-19T04:52:40.132Z,64.98
2023-02-19T04:55:35.842Z,64.81
2023-02-19T04:58:23.375Z,64.85
2023-02-19T05:01:25.432Z,64.45
2023-02-19T05:04:33.165Z,64.79
2023-02-19T05:07:32.260Z,64.63
2023-02-19T05:10:36.533Z,64.73
2023-02-19T05:14:06.842Z,64.60
2023-02-19T05:17:28.988Z,64.74
2023-02-19T05:20:27.305Z,64.78
2023-02-19T05:23:58.601Z,64.98
2023-02-19T05:27:00.996Z,64.96
2023-02-19T05:30:21.179Z,65.03
2023-02-19T05:33:21.916Z,65.11
2023-02-19T05:36:42.003Z,64.71
2023-02-19T05:39:55.659Z,65.12
2023-02-19T05:43:01.838Z,65.07
2023-02-19T05:46:14.268Z,65.49
2023-02-19T05:49:35.776Z,65.86
2023-02-19T05:52:12.040Z,66.25
2023-02-19T05:55:15.621Z,66.11
2023-02-19T05:58:31.700Z,66.12
2023-02-19T06:01:57.720Z,66.28
2023-02-19T06:04:44.082Z,66.27
2023-02-19T06:07:56.829Z,66.47
2023-02-19T06:11:12.723Z,66.47
2023-02-19T06:14:24.837Z,66.61
2023-02-19T06:17:48.964Z,66.44
2023-02-19T06:20:49.781Z,66.68
2023-02-19T06:24:01.796Z,66.81
2023-02-19T06:27:20.988Z,66.92
2023-02-19T06:30:27.583Z,66.83
2023-02-19T06:33:39.163Z,66.96
2023-02-19T06:36:40.548Z,66.90
2023-02-19T06:39:45.886Z,67.16
2023-02-19T06:43:00.694Z,67.33
2023-02-19T06:45:49.307Z,67.74
2023-02-19T06:48:29.355Z,67.55
2023-02-19T06:51:25.180Z,67.91
2023-02-19T06:54:36.557Z,67.58
2023-02-19T06:57:59.609Z,67.32
2023-02-19T07:01:12.865Z,67.18
2023-02-19T07:04:35.321Z,67.24
2023-02-19T07:07:43.390Z,66.90
2023-02-19T07:10:38.518Z,66.88
2023-02-19T07:13:39.363Z,66.80
2023-02-19T07:16:51.706Z,66.51
2023-02-19T07:19:48.033Z,66.18
2023-02-19T07:23:09.292Z,65.70
2023-02-19T07:26:05.928Z,65.65
2023-02-19T07:29:04.292Z,65.08
2023-02-19T07:31:54.362Z,65.50
2023-02-19T07:34:38.821Z,65.33
2023-02-19T07:37:37.592Z,64.68
2023-02-19T07:40:40.900Z,64.51
2023-02-19T07:43:53.821Z,64.26
2023-02-19T07:47:08.524Z,64.79
2023-02-19T07:50:14.605Z,64.00
2023-02-19T07:53:25.994Z,63.44
2023-02-19T07:56:26.735Z,63.69
2023-02-19T07:59:22.419Z,62.38
2023-02-19T08:02:42.088Z,61.59
2023-02-19T08:05:34.842Z,60.84
2023-02-19T08:08:46.964Z,60.52
2023-02-19T08:11:57.663Z,60.17
2023-02-19T08:14:59.044Z,59.48
2023-02-19T08:18:22.180Z,58.69
2023-02-19T08:21:18.508Z,58.11
2023-02-19T08:23:59.119Z,56.35
2023-02-19T08:26:59.261Z,56.57
2023-02-19T08:30:04.852Z,56.15
2023-02-19T08:33:27.704Z,55.28
2023-02-19T08:36:43.210Z,54.80
2023-02-19T08:39:42.482Z,54.82
2023-02-19T08:42:50.523Z,55.06
2023-02-19T08:46:02.209Z,54.53
2023-02-19T08:49:24.500Z,53.17
2023-02-19T08:52:37.430Z,52.41
2023-02-19T08:55:59.699Z,52.87
2023-02-19T08:59:25.640Z,52.91
2023-02-19T09:02:49.686Z,52.29
2023-02-19T09:06:14.340Z,51.80
2023-02-19T09:09:23.502Z,52.38
2023-02-19T09:42:11.144Z,47.80
2023-02-19T09:45:38.772Z,46.22
2023-02-19T09:48:51.180Z,45.47
2023-02-19T09:52:16.393Z,44.47
2023-02-19T09:55:46.996Z,45.89
2023-02-19T09:59:11.699Z,45.51
2023-02-19T10:02:32.853Z,45.34
2023-02-19T10:06:08.752Z,45.14
2023-02-19T10:16:11.683Z,44.88
2023-02-19T10:26:41.112Z,45.04
2023-02-19T10:29:51.012Z,44.87
2023-02-19T10:33:14.725Z,45.86
2023-02-19T10:36:46.880Z,44.99
2023-02-19T10:40:17.676Z,44.95
2023-02-19T10:43:42.652Z,44.88
2023-02-19T10:46:56.173Z,45.18
2023-02-19T10:50:23.323Z,45.68
2023-02-19T10:53:36.151Z,45.33
2023-02-19T10:56:36.748Z,45.46
2023-02-19T10:59:39.197Z,45.27
2023-02-19T11:02:49.834Z,46.13
2023-02-19T11:05:41.797Z,45.91
2023-02-19T11:09:14.040Z,46.14
2023-02-19T11:12:14.832Z,47.04
2023-02-19T11:14:57.219Z,47.78
2023-02-19T11:18:03.764Z,48.19
2023-02-19T11:21:13.481Z,48.11
2023-02-19T11:24:36.183Z,48.50
2023-02-19T11:27:49.572Z,48.86
2023-02-19T11:30:51.819Z,49.08
2023-02-19T11:34:13.692Z,48.69
2023-02-19T11:37:49.701Z,48.91
2023-02-19T11:40:58.477Z,48.78
2023-02-19T11:44:38.132Z,48.31
2023-02-19T11:48:04.813Z,47.84
2023-02-19T11:51:38.021Z,48.06
2023-02-19T11:54:57.006Z,48.19
2023-02-19T11:58:09.274Z,48.98
2023-02-19T12:01:21.115Z,49.40
2023-02-19T12:04:18.702Z,49.22
2023-02-19T12:07:42.283Z,48.76
2023-02-19T12:11:05.392Z,49.57
2023-02-19T12:14:27.679Z,50.21
2023-02-19T12:17:56.437Z,50.28
2023-02-19T12:21:22.338Z,50.68
2023-02-19T12:24:54.534Z,50.34
2023-02-19T12:28:21.942Z,50.39
2023-02-19T12:31:46.066Z,50.66
2023-02-19T12:35:13.907Z,51.12
2023-02-19T12:38:23.558Z,51.31
2023-02-19T12:41:45.133Z,52.45
2023-02-19T12:44:56.194Z,53.98
2023-02-19T12:48:07.353Z,54.61
2023-02-19T12:51:07.013Z,54.76
2023-02-19T12:54:12.973Z,55.19
2023-02-19T12:57:24.847Z,57.10
2023-02-19T13:00:32.991Z,58.17
2023-02-19T13:03:55.296Z,57.73
2023-02-19T13:07:14.902Z,58.71
2023-02-19T13:10:47.057Z,58.40
2023-02-19T13:13:32.434Z,59.71
2023-02-19T13:16:34.087Z,60.49
2023-02-19T13:20:05.405Z,61.38
2023-02-19T13:23:28.284Z,62.89
2023-02-19T13:26:56.044Z,63.90
2023-02-19T13:30:34.577Z,64.66
2023-02-19T13:33:45.976Z,64.95
2023-02-19T13:36:53.257Z,65.96
2023-02-19T13:40:05.571Z,66.50
2023-02-19T13:43:47.843Z,66.92
2023-02-19T13:47:19.618Z,67.16
2023-02-19T13:50:51.626Z,66.98
2023-02-19T13:54:26.476Z,66.49
2023-02-19T13:57:54.150Z,67.10
2023-02-19T15:45:00.304Z,59.07
2023-02-19T15:48:07.571Z,64.02
2023-02-19T15:51:40.606Z,67.51
2023-02-19T15:55:18.662Z,68.35
2023-02-19T15:58:50.641Z,70.62
2023-02-19T16:02:22.270Z,72.31
2023-02-19T16:05:57.363Z,73.39
2023-02-19T16:09:27.078Z,73.54
2023-02-19T16:12:59.097Z,73.83
2023-02-19T16:16:32.512Z,74.88
2023-02-19T16:20:04.166Z,74.54
2023-02-19T16:23:40.781Z,74.07
2023-02-19T16:27:13.139Z,73.98
2023-02-19T16:30:47.569Z,73.51
2023-02-19T16:34:05.626Z,72.43
2023-02-19T16:37:37.432Z,71.93
2023-02-19T16:41:08.194Z,71.25
2023-02-19T16:44:39.877Z,70.36
2023-02-19T16:48:10.890Z,69.51
2023-02-19T16:51:41.276Z,68.30
2023-02-19T16:55:12.687Z,68.66
2023-02-19T16:58:45.113Z,69.10
2023-02-19T17:02:16.515Z,70.01
2023-02-19T17:05:50.333Z,69.75
2023-02-19T17:09:24.394Z,69.61
2023-02-19T17:12:58.205Z,68.34
2023-02-19T17:16:32.328Z,67.53
2023-02-19T17:20:06.033Z,67.11
2023-02-19T17:23:36.075Z,66.66
2023-02-19T17:27:05.517Z,66.37
2023-02-19T17:30:39.810Z,66.33
2023-02-19T17:34:00.626Z,66.66
2023-02-19T17:37:31.878Z,67.25
2023-02-19T17:41:02.895Z,67.67
2023-02-19T17:54:49.612Z,68.61
2023-02-19T17:58:22.388Z,69.18
2023-02-19T18:05:27.200Z,69.51
2023-02-19T18:09:00.950Z,69.92
2023-02-19T18:12:32.165Z,70.22
2023-02-19T18:15:59.047Z,69.93
2023-02-19T18:19:22.997Z,69.92
2023-02-19T18:22:54.824Z,69.91
2023-02-19T18:26:22.063Z,70.54
2023-02-19T18:29:54.541Z,70.48
2023-02-19T18:33:30.429Z,70.64
2023-02-19T18:37:00.481Z,71.12
2023-02-19T18:40:23.538Z,70.87
2023-02-19T18:43:29.783Z,70.94
2023-02-19T18:47:02.192Z,71.50
2023-02-19T19:14:27.783Z,67.07
2023-02-19T19:17:59.673Z,68.66
2023-02-19T19:28:40.853Z,71.04
2023-02-19T19:35:39.558Z,72.36
2023-02-19T19:39:10.103Z,73.01
2023-02-19T19:42:43.605Z,73.66
2023-02-19T19:46:17.192Z,75.47
2023-02-19T19:49:49.412Z,75.96
2023-02-19T19:53:23.258Z,77.10
2023-02-19T19:56:49.152Z,76.96
2023-02-19T20:00:22.977Z,77.68
2023-02-19T20:03:45.626Z,77.72
2023-02-19T20:07:17.083Z,78.38
2023-02-19T20:10:48.732Z,78.93
2023-02-19T20:14:22.855Z,79.25
2023-02-19T20:17:55.324Z,79.80
2023-02-19T20:21:26.399Z,79.93
2023-02-19T20:25:00.758Z,80.05
2023-02-19T20:28:32.861Z,80.05
2023-02-19T20:32:04.193Z,80.06
2023-02-19T20:35:35.560Z,79.72
2023-02-19T20:39:06.932Z,79.87
2023-02-19T20:42:39.370Z,79.81
2023-02-19T20:46:14.326Z,79.57
2023-02-19T20:49:48.355Z,79.58
2023-02-19T20:53:21.475Z,79.34
2023-02-19T21:00:23.817Z,78.56
2023-02-19T21:03:58.162Z,78.24
2023-02-19T21:07:30.265Z,77.84
2023-02-19T21:10:50.828Z,77.86
2023-02-19T21:14:22.229Z,77.75
2023-02-19T21:17:54.228Z,78.40
2023-02-19T21:21:27.792Z,78.27
2023-02-19T21:24:59.816Z,77.89
2023-02-19T21:28:32.632Z,77.50
2023-02-19T21:32:04.900Z,77.90
2023-02-19T21:35:36.900Z,78.04
2023-02-19T21:39:00.628Z,78.16
2023-02-19T22:06:45.766Z,78.91
2023-02-19T22:10:18.628Z,78.37
2023-02-19T22:17:21.261Z,78.32
2023-02-19T22:20:54.027Z,78.86
2023-02-19T22:24:25.495Z,79.03
2023-02-19T22:27:58.898Z,79.08
2023-02-19T22:31:30.868Z,78.84
2023-02-19T22:35:02.944Z,79.17
2023-02-19T22:38:35.013Z,78.82
2023-02-19T22:42:05.995Z,79.09
2023-02-19T22:45:37.183Z,79.54
2023-02-19T22:49:09.354Z,79.93
2023-02-19T22:52:44.542Z,80.12
2023-02-19T22:56:15.986Z,80.60
2023-02-19T22:59:47.913Z,80.75
2023-02-19T23:03:19.419Z,80.84
2023-02-19T23:06:49.894Z,80.73
2023-02-19T23:10:21.499Z,80.83
2023-02-19T23:13:53.364Z,81.07
2023-02-19T23:17:24.813Z,81.07
2023-02-19T23:20:56.495Z,80.16
2023-02-19T23:24:28.470Z,80.04
2023-02-19T23:28:00.687Z,79.94
2023-02-19T23:31:32.349Z,79.94
2023-02-19T23:35:05.074Z,79.44
2023-02-19T23:38:35.830Z,79.49
2023-02-19T23:42:07.531Z,79.79
2023-02-19T23:45:38.603Z,79.39
2023-02-19T23:49:10.459Z,78.79
2023-02-19T23:52:42.543Z,78.20
2023-02-19T23:56:17.599Z,78.09
2023-02-19T23:59:48.847Z,77.30
